sensor_id;sensor_type;location;lat;lon;timestamp;pressure;altitude;pressure_sealevel;temperature;humidity
44131;BME280;29792;48.726;9.248;2023-06-22T00:00:54;96952.41;;;22.78;85.98
44131;BME280;29792;48.726;9.248;2023-06-22T00:03:21;96954.78;;;22.79;85.96
44131;BME280;29792;48.726;9.248;2023-06-22T00:05:48;96950.19;;;22.81;86.04
44131;BME280;29792;48.726;9.248;2023-06-22T00:08:14;96946.16;;;22.79;85.74
44131;BME280;29792;48.726;9.248;2023-06-22T00:10:39;96943.75;;;22.77;85.78
44131;BME280;29792;48.726;9.248;2023-06-22T00:13:08;96953.81;;;22.74;86.13
44131;BME280;29792;48.726;9.248;2023-06-22T00:15:35;96938.28;;;22.72;85.97
44131;BME280;29792;48.726;9.248;2023-06-22T00:18:00;96947.53;;;22.68;86.12
44131;BME280;29792;48.726;9.248;2023-06-22T00:20:26;96945.13;;;22.67;86.18
44131;BME280;29792;48.726;9.248;2023-06-22T00:22:55;96945.31;;;22.65;86.14
44131;BME280;29792;48.726;9.248;2023-06-22T00:25:21;96952.34;;;22.65;86.06
44131;BME280;29792;48.726;9.248;2023-06-22T00:27:47;96953.34;;;22.64;86.14
44131;BME280;29792;48.726;9.248;2023-06-22T00:30:13;96956.97;;;22.63;86.15
44131;BME280;29792;48.726;9.248;2023-06-22T00:32:38;96951.75;;;22.63;86.13
44131;BME280;29792;48.726;9.248;2023-06-22T00:35:04;96959.00;;;22.61;86.33
44131;BME280;29792;48.726;9.248;2023-06-22T00:37:29;96951.34;;;22.59;86.27
44131;BME280;29792;48.726;9.248;2023-06-22T00:39:55;96948.13;;;22.57;86.73
44131;BME280;29792;48.726;9.248;2023-06-22T00:42:21;96942.09;;;22.57;86.30
44131;BME280;29792;48.726;9.248;2023-06-22T00:44:47;96935.47;;;22.54;86.82
44131;BME280;29792;48.726;9.248;2023-06-22T00:47:17;96936.50;;;22.53;86.49
44131;BME280;29792;48.726;9.248;2023-06-22T00:49:43;96939.09;;;22.53;86.51
44131;BME280;29792;48.726;9.248;2023-06-22T00:52:09;96944.72;;;22.50;87.03
44131;BME280;29792;48.726;9.248;2023-06-22T00:54:40;96938.88;;;22.48;86.98
44131;BME280;29792;48.726;9.248;2023-06-22T00:57:11;96946.09;;;22.46;87.17
44131;BME280;29792;48.726;9.248;2023-06-22T00:59:37;96961.38;;;22.42;87.24
44131;BME280;29792;48.726;9.248;2023-06-22T01:02:04;96946.91;;;22.40;87.03
44131;BME280;29792;48.726;9.248;2023-06-22T01:04:37;96947.09;;;22.38;87.29
44131;BME280;29792;48.726;9.248;2023-06-22T01:09:35;96977.22;;;22.34;87.72
44131;BME280;29792;48.726;9.248;2023-06-22T01:12:07;96976.59;;;22.32;87.64
44131;BME280;29792;48.726;9.248;2023-06-22T01:14:43;96994.47;;;22.29;87.53
44131;BME280;29792;48.726;9.248;2023-06-22T01:17:14;97000.28;;;22.24;87.63
44131;BME280;29792;48.726;9.248;2023-06-22T01:19:45;96984.81;;;22.23;88.02
44131;BME280;29792;48.726;9.248;2023-06-22T01:22:15;96961.31;;;22.23;87.77
44131;BME280;29792;48.726;9.248;2023-06-22T01:27:28;96973.78;;;22.21;87.88
44131;BME280;29792;48.726;9.248;2023-06-22T01:29:59;96973.97;;;22.19;87.92
44131;BME280;29792;48.726;9.248;2023-06-22T01:32:31;96956.69;;;22.18;87.96
44131;BME280;29792;48.726;9.248;2023-06-22T01:34:58;96950.88;;;22.16;88.04
44131;BME280;29792;48.726;9.248;2023-06-22T01:37:25;96954.66;;;22.14;88.23
44131;BME280;29792;48.726;9.248;2023-06-22T01:39:50;96961.72;;;22.13;88.40
44131;BME280;29792;48.726;9.248;2023-06-22T01:42:16;96960.09;;;22.12;88.43
44131;BME280;29792;48.726;9.248;2023-06-22T01:44:42;96946.25;;;22.12;88.03
44131;BME280;29792;48.726;9.248;2023-06-22T01:47:07;96947.25;;;22.11;88.64
44131;BME280;29792;48.726;9.248;2023-06-22T01:49:33;96949.66;;;22.12;88.54
44131;BME280;29792;48.726;9.248;2023-06-22T01:51:58;96949.84;;;22.11;88.69
44131;BME280;29792;48.726;9.248;2023-06-22T01:54:23;96954.09;;;22.12;88.36
44131;BME280;29792;48.726;9.248;2023-06-22T01:56:49;96947.25;;;22.11;88.80
44131;BME280;29792;48.726;9.248;2023-06-22T01:59:34;96963.91;;;22.10;88.71
44131;BME280;29792;48.726;9.248;2023-06-22T02:02:06;96963.28;;;22.07;89.21
44131;BME280;29792;48.726;9.248;2023-06-22T02:04:37;96968.31;;;22.02;88.74
44131;BME280;29792;48.726;9.248;2023-06-22T02:07:08;96968.06;;;21.97;89.27
44131;BME280;29792;48.726;9.248;2023-06-22T02:09:35;96960.00;;;21.92;89.61
44131;BME280;29792;48.726;9.248;2023-06-22T02:12:04;96961.97;;;21.90;90.00
44131;BME280;29792;48.726;9.248;2023-06-22T02:14:30;96958.16;;;21.86;90.28
44131;BME280;29792;48.726;9.248;2023-06-22T02:16:56;96980.63;;;21.81;90.27
44131;BME280;29792;48.726;9.248;2023-06-22T02:19:24;96987.41;;;21.75;90.95
44131;BME280;29792;48.726;9.248;2023-06-22T02:21:50;96970.75;;;21.69;91.57
44131;BME280;29792;48.726;9.248;2023-06-22T02:24:16;96967.50;;;21.67;92.18
44131;BME280;29792;48.726;9.248;2023-06-22T02:26:42;96967.69;;;21.66;92.23
44131;BME280;29792;48.726;9.248;2023-06-22T02:29:08;96967.47;;;21.61;92.22
44131;BME280;29792;48.726;9.248;2023-06-22T02:31:33;96972.47;;;21.56;92.43
44131;BME280;29792;48.726;9.248;2023-06-22T02:33:59;96957.59;;;21.50;92.75
44131;BME280;29792;48.726;9.248;2023-06-22T02:36:25;96949.19;;;21.48;93.02
44131;BME280;29792;48.726;9.248;2023-06-22T02:38:52;96948.56;;;21.46;93.39
44131;BME280;29792;48.726;9.248;2023-06-22T02:41:18;96947.94;;;21.44;93.55
44131;BME280;29792;48.726;9.248;2023-06-22T02:43:45;96953.53;;;21.41;93.71
44131;BME280;29792;48.726;9.248;2023-06-22T02:46:10;96952.13;;;21.38;94.04
44131;BME280;29792;48.726;9.248;2023-06-22T02:48:36;96948.09;;;21.36;94.38
44131;BME280;29792;48.726;9.248;2023-06-22T02:51:01;96934.44;;;21.33;94.54
44131;BME280;29792;48.726;9.248;2023-06-22T02:53:26;96929.22;;;21.33;95.36
44131;BME280;29792;48.726;9.248;2023-06-22T02:55:51;96926.63;;;21.33;95.32
44131;BME280;29792;48.726;9.248;2023-06-22T02:58:17;96928.41;;;21.33;95.08
44131;BME280;29792;48.726;9.248;2023-06-22T03:00:42;96927.63;;;21.32;94.77
44131;BME280;29792;48.726;9.248;2023-06-22T03:03:07;96926.41;;;21.28;94.35
44131;BME280;29792;48.726;9.248;2023-06-22T03:05:32;96925.16;;;21.24;95.05
44131;BME280;29792;48.726;9.248;2023-06-22T03:08:00;96915.13;;;21.21;94.87
44131;BME280;29792;48.726;9.248;2023-06-22T03:10:26;96915.50;;;21.18;94.64
44131;BME280;29792;48.726;9.248;2023-06-22T03:12:51;96915.50;;;21.18;94.82
44131;BME280;29792;48.726;9.248;2023-06-22T03:15:16;96911.28;;;21.17;94.90
44131;BME280;29792;48.726;9.248;2023-06-22T03:17:42;96917.47;;;21.16;94.72
44131;BME280;29792;48.726;9.248;2023-06-22T03:20:08;96910.06;;;21.13;95.01
44131;BME280;29792;48.726;9.248;2023-06-22T03:22:39;96908.63;;;21.11;95.28
44131;BME280;29792;48.726;9.248;2023-06-22T03:25:06;96914.22;;;21.08;95.33
44131;BME280;29792;48.726;9.248;2023-06-22T03:27:39;96915.00;;;21.08;95.55
44131;BME280;29792;48.726;9.248;2023-06-22T03:30:08;96910.81;;;21.07;95.50
44131;BME280;29792;48.726;9.248;2023-06-22T03:32:33;96915.41;;;21.05;95.53
44131;BME280;29792;48.726;9.248;2023-06-22T03:34:58;96912.19;;;21.03;95.61
44131;BME280;29792;48.726;9.248;2023-06-22T03:37:27;96916.59;;;21.03;96.01
44131;BME280;29792;48.726;9.248;2023-06-22T03:39:52;96916.59;;;21.03;96.08
44131;BME280;29792;48.726;9.248;2023-06-22T03:42:18;96917.59;;;21.02;96.21
44131;BME280;29792;48.726;9.248;2023-06-22T03:44:43;96917.97;;;20.99;96.21
44131;BME280;29792;48.726;9.248;2023-06-22T03:47:08;96917.53;;;20.95;96.38
44131;BME280;29792;48.726;9.248;2023-06-22T03:49:34;96911.72;;;20.93;96.88
44131;BME280;29792;48.726;9.248;2023-06-22T03:52:01;96911.94;;;20.91;97.59
44131;BME280;29792;48.726;9.248;2023-06-22T03:54:28;96917.13;;;20.91;97.52
44131;BME280;29792;48.726;9.248;2023-06-22T03:56:54;96911.94;;;20.91;97.83
44131;BME280;29792;48.726;9.248;2023-06-22T03:59:19;96916.50;;;20.89;97.71
44131;BME280;29792;48.726;9.248;2023-06-22T04:01:44;96907.88;;;20.89;98.47
44131;BME280;29792;48.726;9.248;2023-06-22T04:04:10;96907.88;;;20.89;98.42
44131;BME280;29792;48.726;9.248;2023-06-22T04:06:35;96912.91;;;20.90;98.52
44131;BME280;29792;48.726;9.248;2023-06-22T04:09:00;96915.53;;;20.90;98.54
44131;BME280;29792;48.726;9.248;2023-06-22T04:11:25;96905.09;;;20.90;98.50
44131;BME280;29792;48.726;9.248;2023-06-22T04:13:51;96902.28;;;20.92;98.93
44131;BME280;29792;48.726;9.248;2023-06-22T04:16:16;96907.13;;;20.95;99.02
44131;BME280;29792;48.726;9.248;2023-06-22T04:18:41;96900.91;;;20.96;99.13
44131;BME280;29792;48.726;9.248;2023-06-22T04:21:07;96896.34;;;20.98;99.42
44131;BME280;29792;48.726;9.248;2023-06-22T04:23:32;96895.13;;;21.01;99.76
44131;BME280;29792;48.726;9.248;2023-06-22T04:25:57;96891.34;;;21.03;99.55
44131;BME280;29792;48.726;9.248;2023-06-22T04:28:24;96884.16;;;21.05;99.48
44131;BME280;29792;48.726;9.248;2023-06-22T04:30:49;96884.56;;;21.09;99.95
44131;BME280;29792;48.726;9.248;2023-06-22T04:33:16;96884.56;;;21.09;99.86
44131;BME280;29792;48.726;9.248;2023-06-22T04:35:44;96884.38;;;21.10;100.00
44131;BME280;29792;48.726;9.248;2023-06-22T04:38:12;96881.56;;;21.12;99.98
44131;BME280;29792;48.726;9.248;2023-06-22T04:40:39;96878.78;;;21.13;99.58
44131;BME280;29792;48.726;9.248;2023-06-22T04:43:04;96880.41;;;21.14;99.37
44131;BME280;29792;48.726;9.248;2023-06-22T04:45:34;96875.78;;;21.16;99.70
44131;BME280;29792;48.726;9.248;2023-06-22T04:48:03;96873.03;;;21.18;99.79
44131;BME280;29792;48.726;9.248;2023-06-22T04:50:28;96860.41;;;21.21;99.64
44131;BME280;29792;48.726;9.248;2023-06-22T04:52:53;96865.63;;;21.21;99.20
44131;BME280;29792;48.726;9.248;2023-06-22T04:55:19;96852.59;;;21.21;99.30
44131;BME280;29792;48.726;9.248;2023-06-22T04:57:45;96860.03;;;21.24;99.22
44131;BME280;29792;48.726;9.248;2023-06-22T05:00:15;96856.22;;;21.27;98.98
44131;BME280;29792;48.726;9.248;2023-06-22T05:02:43;96856.03;;;21.28;99.04
44131;BME280;29792;48.726;9.248;2023-06-22T05:05:08;96861.69;;;21.32;98.86
44131;BME280;29792;48.726;9.248;2023-06-22T05:07:34;96856.25;;;21.33;99.01
44131;BME280;29792;48.726;9.248;2023-06-22T05:10:01;96855.88;;;21.37;98.58
44131;BME280;29792;48.726;9.248;2023-06-22T05:12:27;96858.09;;;21.40;98.66
44131;BME280;29792;48.726;9.248;2023-06-22T05:14:53;96857.69;;;21.43;98.61
44131;BME280;29792;48.726;9.248;2023-06-22T05:17:18;96856.72;;;21.44;98.16
44131;BME280;29792;48.726;9.248;2023-06-22T05:19:44;96850.31;;;21.46;97.98
44131;BME280;29792;48.726;9.248;2023-06-22T05:22:13;96843.88;;;21.49;97.33
44131;BME280;29792;48.726;9.248;2023-06-22T05:24:38;96848.72;;;21.52;97.15
44131;BME280;29792;48.726;9.248;2023-06-22T05:27:04;96849.16;;;21.55;97.65
44131;BME280;29792;48.726;9.248;2023-06-22T05:29:29;96850.53;;;21.58;97.00
44131;BME280;29792;48.726;9.248;2023-06-22T05:31:54;96838.72;;;21.62;96.99
44131;BME280;29792;48.726;9.248;2023-06-22T05:34:19;96845.16;;;21.66;97.43
44131;BME280;29792;48.726;9.248;2023-06-22T05:36:45;96837.56;;;21.71;97.62
44131;BME280;29792;48.726;9.248;2023-06-22T05:39:12;96838.75;;;21.75;96.52
44131;BME280;29792;48.726;9.248;2023-06-22T05:41:40;96840.16;;;21.78;96.23
44131;BME280;29792;48.726;9.248;2023-06-22T05:44:06;96840.38;;;21.83;96.23
44131;BME280;29792;48.726;9.248;2023-06-22T05:46:32;96842.22;;;21.89;95.96
44131;BME280;29792;48.726;9.248;2023-06-22T05:48:57;96841.59;;;21.93;95.54
44131;BME280;29792;48.726;9.248;2023-06-22T05:51:22;96839.84;;;22.00;95.42
44131;BME280;29792;48.726;9.248;2023-06-22T05:53:47;96839.03;;;22.06;94.81
44131;BME280;29792;48.726;9.248;2023-06-22T05:56:15;96847.47;;;22.15;95.05
44131;BME280;29792;48.726;9.248;2023-06-22T05:58:40;96844.09;;;22.21;94.76
44131;BME280;29792;48.726;9.248;2023-06-22T06:01:06;96841.69;;;22.26;94.61
44131;BME280;29792;48.726;9.248;2023-06-22T06:03:31;96845.28;;;22.32;93.64
44131;BME280;29792;48.726;9.248;2023-06-22T06:05:56;96844.47;;;22.38;92.98
44131;BME280;29792;48.726;9.248;2023-06-22T06:08:22;96831.44;;;22.44;92.43
44131;BME280;29792;48.726;9.248;2023-06-22T06:10:47;96836.47;;;22.53;92.72
44131;BME280;29792;48.726;9.248;2023-06-22T06:13:12;96824.41;;;22.58;92.09
44131;BME280;29792;48.726;9.248;2023-06-22T06:15:37;96827.00;;;22.65;92.16
44131;BME280;29792;48.726;9.248;2023-06-22T06:18:03;96833.19;;;22.70;92.28
44131;BME280;29792;48.726;9.248;2023-06-22T06:20:31;96836.88;;;22.76;91.72
44131;BME280;29792;48.726;9.248;2023-06-22T06:22:56;96839.84;;;22.79;91.83
44131;BME280;29792;48.726;9.248;2023-06-22T06:25:22;96843.88;;;22.82;90.85
44131;BME280;29792;48.726;9.248;2023-06-22T06:27:48;96844.06;;;22.87;90.99
44131;BME280;29792;48.726;9.248;2023-06-22T06:30:15;96837.22;;;22.93;90.75
44131;BME280;29792;48.726;9.248;2023-06-22T06:32:41;96837.41;;;22.98;89.62
44131;BME280;29792;48.726;9.248;2023-06-22T06:35:08;96838.63;;;23.02;89.05
44131;BME280;29792;48.726;9.248;2023-06-22T06:37:36;96834.19;;;23.09;88.78
44131;BME280;29792;48.726;9.248;2023-06-22T06:40:03;96836.56;;;23.17;89.08
44131;BME280;29792;48.726;9.248;2023-06-22T06:42:30;96843.38;;;23.25;88.48
44131;BME280;29792;48.726;9.248;2023-06-22T06:44:56;96838.72;;;23.33;88.65
44131;BME280;29792;48.726;9.248;2023-06-22T06:47:21;96840.28;;;23.41;87.58
44131;BME280;29792;48.726;9.248;2023-06-22T06:49:47;96844.31;;;23.50;86.95
44131;BME280;29792;48.726;9.248;2023-06-22T06:52:12;96844.88;;;23.58;86.31
44131;BME280;29792;48.726;9.248;2023-06-22T06:54:37;96844.19;;;23.70;85.75
44131;BME280;29792;48.726;9.248;2023-06-22T06:57:03;96837.72;;;23.79;84.94
44131;BME280;29792;48.726;9.248;2023-06-22T06:59:28;96836.84;;;23.91;84.56
44131;BME280;29792;48.726;9.248;2023-06-22T07:01:55;96844.00;;;24.03;83.59
44131;BME280;29792;48.726;9.248;2023-06-22T07:04:21;96835.50;;;24.14;83.84
44131;BME280;29792;48.726;9.248;2023-06-22T07:06:46;96835.63;;;24.25;82.66
44131;BME280;29792;48.726;9.248;2023-06-22T07:09:11;96834.94;;;24.37;83.21
44131;BME280;29792;48.726;9.248;2023-06-22T07:11:36;96828.78;;;24.49;82.73
44131;BME280;29792;48.726;9.248;2023-06-22T07:14:02;96830.50;;;24.62;82.08
44131;BME280;29792;48.726;9.248;2023-06-22T07:16:27;96830.16;;;24.77;82.62
44131;BME280;29792;48.726;9.248;2023-06-22T07:18:53;96823.97;;;24.89;82.01
44131;BME280;29792;48.726;9.248;2023-06-22T07:21:19;96821.47;;;25.01;80.32
44131;BME280;29792;48.726;9.248;2023-06-22T07:23:44;96822.91;;;25.15;79.25
44131;BME280;29792;48.726;9.248;2023-06-22T07:26:09;96811.91;;;25.25;78.09
44131;BME280;29792;48.726;9.248;2023-06-22T07:28:34;96811.97;;;25.36;78.19
44131;BME280;29792;48.726;9.248;2023-06-22T07:31:03;96807.94;;;25.52;77.94
44131;BME280;29792;48.726;9.248;2023-06-22T07:33:29;96803.13;;;25.67;77.45
44131;BME280;29792;48.726;9.248;2023-06-22T07:35:54;96799.97;;;25.77;76.14
44131;BME280;29792;48.726;9.248;2023-06-22T07:38:19;96791.31;;;25.88;76.01
44131;BME280;29792;48.726;9.248;2023-06-22T07:40:45;96791.94;;;26.02;76.20
44131;BME280;29792;48.726;9.248;2023-06-22T07:43:10;96786.47;;;26.15;74.38
44131;BME280;29792;48.726;9.248;2023-06-22T07:45:37;96781.44;;;26.25;72.71
44131;BME280;29792;48.726;9.248;2023-06-22T07:48:04;96768.81;;;26.34;72.83
44131;BME280;29792;48.726;9.248;2023-06-22T07:50:29;96764.56;;;26.44;72.25
44131;BME280;29792;48.726;9.248;2023-06-22T07:52:55;96762.75;;;26.56;73.00
44131;BME280;29792;48.726;9.248;2023-06-22T07:55:20;96762.72;;;26.68;72.56
44131;BME280;29792;48.726;9.248;2023-06-22T07:57:47;96759.28;;;26.79;71.11
44131;BME280;29792;48.726;9.248;2023-06-22T08:00:12;96768.75;;;26.92;70.71
44131;BME280;29792;48.726;9.248;2023-06-22T08:02:40;96759.75;;;27.00;71.11
44131;BME280;29792;48.726;9.248;2023-06-22T08:05:07;96757.88;;;27.12;69.84
44131;BME280;29792;48.726;9.248;2023-06-22T08:07:36;96763.34;;;27.22;70.88
44131;BME280;29792;48.726;9.248;2023-06-22T08:10:03;96769.81;;;27.31;69.27
44131;BME280;29792;48.726;9.248;2023-06-22T08:12:28;96771.28;;;27.39;68.83
44131;BME280;29792;48.726;9.248;2023-06-22T08:14:54;96778.81;;;27.47;68.60
44131;BME280;29792;48.726;9.248;2023-06-22T08:17:19;96785.41;;;27.61;69.98
44131;BME280;29792;48.726;9.248;2023-06-22T08:19:44;96792.69;;;27.70;68.44
44131;BME280;29792;48.726;9.248;2023-06-22T08:22:09;96800.25;;;27.67;67.07
44131;BME280;29792;48.726;9.248;2023-06-22T08:24:35;96800.72;;;27.64;68.06
44131;BME280;29792;48.726;9.248;2023-06-22T08:27:00;96804.41;;;27.63;68.28
44131;BME280;29792;48.726;9.248;2023-06-22T08:29:25;96804.28;;;27.58;67.61
44131;BME280;29792;48.726;9.248;2023-06-22T08:31:51;96814.28;;;27.56;67.78
44131;BME280;29792;48.726;9.248;2023-06-22T08:34:16;96820.66;;;27.60;68.22
44131;BME280;29792;48.726;9.248;2023-06-22T08:36:43;96830.56;;;27.69;69.19
44131;BME280;29792;48.726;9.248;2023-06-22T08:39:08;96839.69;;;27.79;68.66
44131;BME280;29792;48.726;9.248;2023-06-22T08:41:34;96844.44;;;27.93;69.21
44131;BME280;29792;48.726;9.248;2023-06-22T08:43:59;96843.59;;;28.04;69.05
44131;BME280;29792;48.726;9.248;2023-06-22T08:46:24;96840.47;;;28.07;67.13
44131;BME280;29792;48.726;9.248;2023-06-22T08:48:58;96837.81;;;28.07;66.41
44131;BME280;29792;48.726;9.248;2023-06-22T08:51:24;96838.63;;;28.08;66.82
44131;BME280;29792;48.726;9.248;2023-06-22T08:53:49;96836.72;;;28.03;66.34
44131;BME280;29792;48.726;9.248;2023-06-22T08:56:15;96828.72;;;27.98;65.48
44131;BME280;29792;48.726;9.248;2023-06-22T08:58:40;96828.97;;;27.97;66.73
44131;BME280;29792;48.726;9.248;2023-06-22T09:01:05;96820.00;;;27.98;66.04
44131;BME280;29792;48.726;9.248;2023-06-22T09:03:31;96818.97;;;27.99;65.30
44131;BME280;29792;48.726;9.248;2023-06-22T09:05:57;96819.31;;;28.02;65.67
44131;BME280;29792;48.726;9.248;2023-06-22T09:08:23;96817.53;;;28.08;66.09
44131;BME280;29792;48.726;9.248;2023-06-22T09:10:48;96826.69;;;28.17;66.83
44131;BME280;29792;48.726;9.248;2023-06-22T09:13:13;96822.00;;;28.19;65.31
44131;BME280;29792;48.726;9.248;2023-06-22T09:15:38;96814.97;;;28.25;65.99
44131;BME280;29792;48.726;9.248;2023-06-22T09:18:04;96798.28;;;28.36;67.33
44131;BME280;29792;48.726;9.248;2023-06-22T09:20:29;96802.16;;;28.50;66.47
44131;BME280;29792;48.726;9.248;2023-06-22T09:22:54;96808.78;;;28.69;68.59
44131;BME280;29792;48.726;9.248;2023-06-22T09:25:20;96823.81;;;28.86;67.60
44131;BME280;29792;48.726;9.248;2023-06-22T09:27:46;96812.34;;;28.97;66.44
44131;BME280;29792;48.726;9.248;2023-06-22T09:30:11;96816.63;;;29.03;65.22
44131;BME280;29792;48.726;9.248;2023-06-22T09:32:36;96807.25;;;29.12;66.49
44131;BME280;29792;48.726;9.248;2023-06-22T09:35:04;96803.47;;;29.25;67.04
44131;BME280;29792;48.726;9.248;2023-06-22T09:37:34;96805.25;;;29.41;66.99
44131;BME280;29792;48.726;9.248;2023-06-22T09:39:59;96801.13;;;29.50;65.49
44131;BME280;29792;48.726;9.248;2023-06-22T09:42:25;96800.69;;;29.58;63.21
44131;BME280;29792;48.726;9.248;2023-06-22T09:44:50;96797.28;;;29.63;62.96
44131;BME280;29792;48.726;9.248;2023-06-22T09:47:15;96786.84;;;29.73;63.07
44131;BME280;29792;48.726;9.248;2023-06-22T09:49:40;96777.91;;;29.79;61.66
44131;BME280;29792;48.726;9.248;2023-06-22T09:52:06;96779.25;;;29.81;62.09
44131;BME280;29792;48.726;9.248;2023-06-22T09:54:31;96771.56;;;29.80;61.42
44131;BME280;29792;48.726;9.248;2023-06-22T09:56:57;96780.53;;;29.79;61.31
44131;BME280;29792;48.726;9.248;2023-06-22T09:59:22;96785.88;;;29.84;62.84
44131;BME280;29792;48.726;9.248;2023-06-22T10:01:47;96788.31;;;29.90;61.40
44131;BME280;29792;48.726;9.248;2023-06-22T10:04:13;96774.41;;;30.00;60.99
44131;BME280;29792;48.726;9.248;2023-06-22T10:06:38;96770.78;;;30.06;61.19
44131;BME280;29792;48.726;9.248;2023-06-22T10:09:06;96758.88;;;30.09;59.96
44131;BME280;29792;48.726;9.248;2023-06-22T10:11:32;96749.41;;;30.08;60.06
44131;BME280;29792;48.726;9.248;2023-06-22T10:14:00;96750.69;;;30.05;60.24
44131;BME280;29792;48.726;9.248;2023-06-22T10:16:30;96749.84;;;30.00;59.70
44131;BME280;29792;48.726;9.248;2023-06-22T10:18:56;96745.78;;;29.92;59.91
44131;BME280;29792;48.726;9.248;2023-06-22T10:21:21;96734.38;;;29.86;60.08
44131;BME280;29792;48.726;9.248;2023-06-22T10:23:46;96738.06;;;29.85;62.37
44131;BME280;29792;48.726;9.248;2023-06-22T10:26:11;96741.50;;;29.86;62.25
44131;BME280;29792;48.726;9.248;2023-06-22T10:28:37;96731.50;;;29.88;62.59
44131;BME280;29792;48.726;9.248;2023-06-22T10:31:02;96729.66;;;29.88;61.27
44131;BME280;29792;48.726;9.248;2023-06-22T10:33:27;96730.66;;;29.82;60.11
44131;BME280;29792;48.726;9.248;2023-06-22T10:35:52;96724.53;;;29.77;61.69
44131;BME280;29792;48.726;9.248;2023-06-22T10:38:18;96717.41;;;29.77;62.60
44131;BME280;29792;48.726;9.248;2023-06-22T10:40:43;96713.47;;;29.80;62.98
44131;BME280;29792;48.726;9.248;2023-06-22T10:43:08;96715.06;;;29.81;62.18
44131;BME280;29792;48.726;9.248;2023-06-22T10:45:33;96717.47;;;29.82;62.58
44131;BME280;29792;48.726;9.248;2023-06-22T10:47:59;96719.81;;;29.84;62.94
44131;BME280;29792;48.726;9.248;2023-06-22T10:50:25;96712.19;;;29.87;63.96
44131;BME280;29792;48.726;9.248;2023-06-22T10:52:50;96705.06;;;29.88;62.89
44131;BME280;29792;48.726;9.248;2023-06-22T10:55:16;96701.38;;;29.89;63.48
44131;BME280;29792;48.726;9.248;2023-06-22T10:57:41;96706.41;;;29.90;62.87
44131;BME280;29792;48.726;9.248;2023-06-22T11:00:12;96711.72;;;29.90;63.32
44131;BME280;29792;48.726;9.248;2023-06-22T11:02:38;96703.22;;;29.88;62.59
44131;BME280;29792;48.726;9.248;2023-06-22T11:05:04;96711.16;;;29.88;61.63
44131;BME280;29792;48.726;9.248;2023-06-22T11:07:29;96695.31;;;29.88;60.96
44131;BME280;29792;48.726;9.248;2023-06-22T11:09:55;96697.69;;;29.90;62.59
44131;BME280;29792;48.726;9.248;2023-06-22T11:12:20;96714.06;;;29.92;60.83
44131;BME280;29792;48.726;9.248;2023-06-22T11:14:45;96708.06;;;29.96;61.43
44131;BME280;29792;48.726;9.248;2023-06-22T11:17:11;96710.47;;;29.98;62.93
44131;BME280;29792;48.726;9.248;2023-06-22T11:19:36;96716.28;;;30.00;61.70
44131;BME280;29792;48.726;9.248;2023-06-22T11:22:02;96716.03;;;30.02;62.56
44131;BME280;29792;48.726;9.248;2023-06-22T11:24:27;96716.81;;;30.02;62.32
44131;BME280;29792;48.726;9.248;2023-06-22T11:26:52;96720.00;;;29.99;61.44
44131;BME280;29792;48.726;9.248;2023-06-22T11:29:17;96711.75;;;29.95;61.74
44131;BME280;29792;48.726;9.248;2023-06-22T11:31:43;96714.06;;;29.92;60.97
44131;BME280;29792;48.726;9.248;2023-06-22T11:34:08;96711.72;;;29.90;61.92
44131;BME280;29792;48.726;9.248;2023-06-22T11:36:34;96703.50;;;29.92;62.93
44131;BME280;29792;48.726;9.248;2023-06-22T11:39:00;96698.00;;;29.93;63.21
44131;BME280;29792;48.726;9.248;2023-06-22T11:41:26;96695.13;;;29.95;62.71
44131;BME280;29792;48.726;9.248;2023-06-22T11:43:51;96688.81;;;30.01;63.07
44131;BME280;29792;48.726;9.248;2023-06-22T11:46:16;96684.63;;;30.05;62.84
44131;BME280;29792;48.726;9.248;2023-06-22T11:48:42;96683.03;;;30.09;62.17
44131;BME280;29792;48.726;9.248;2023-06-22T11:51:07;96682.56;;;30.12;62.34
44131;BME280;29792;48.726;9.248;2023-06-22T11:53:33;96687.84;;;30.12;62.67
44131;BME280;29792;48.726;9.248;2023-06-22T11:55:59;96694.66;;;30.08;61.52
44131;BME280;29792;48.726;9.248;2023-06-22T11:58:25;96700.44;;;30.00;60.64
44131;BME280;29792;48.726;9.248;2023-06-22T12:00:50;96704.13;;;29.99;60.95
44131;BME280;29792;48.726;9.248;2023-06-22T12:03:17;96706.00;;;29.99;59.92
44131;BME280;29792;48.726;9.248;2023-06-22T12:05:42;96702.03;;;30.01;61.27
44131;BME280;29792;48.726;9.248;2023-06-22T12:08:07;96711.53;;;30.02;60.41
44131;BME280;29792;48.726;9.248;2023-06-22T12:10:33;96703.38;;;30.04;60.62
44131;BME280;29792;48.726;9.248;2023-06-22T12:12:59;96696.00;;;30.06;60.39
44131;BME280;29792;48.726;9.248;2023-06-22T12:15:25;96687.50;;;30.04;59.71
44131;BME280;29792;48.726;9.248;2023-06-22T12:17:50;96682.72;;;30.01;59.60
44131;BME280;29792;48.726;9.248;2023-06-22T12:20:16;96686.16;;;30.01;60.19
44131;BME280;29792;48.726;9.248;2023-06-22T12:22:41;96681.69;;;30.02;60.46
44131;BME280;29792;48.726;9.248;2023-06-22T12:25:07;96689.91;;;30.05;60.29
44131;BME280;29792;48.726;9.248;2023-06-22T12:27:34;96686.22;;;30.06;60.50
44131;BME280;29792;48.726;9.248;2023-06-22T12:29:59;96688.88;;;30.06;59.96
44131;BME280;29792;48.726;9.248;2023-06-22T12:32:24;96691.50;;;30.06;60.38
44131;BME280;29792;48.726;9.248;2023-06-22T12:34:50;96685.66;;;30.04;59.20
44131;BME280;29792;48.726;9.248;2023-06-22T12:37:16;96691.44;;;30.01;59.75
44131;BME280;29792;48.726;9.248;2023-06-22T12:39:41;96711.53;;;29.97;60.71
44131;BME280;29792;48.726;9.248;2023-06-22T12:42:07;96719.34;;;29.92;59.83
44131;BME280;29792;48.726;9.248;2023-06-22T12:44:34;96733.88;;;29.89;60.65
44131;BME280;29792;48.726;9.248;2023-06-22T12:47:00;96741.75;;;29.84;60.80
44131;BME280;29792;48.726;9.248;2023-06-22T12:49:25;96744.38;;;29.79;60.54
44131;BME280;29792;48.726;9.248;2023-06-22T12:51:50;96747.22;;;29.73;61.07
44131;BME280;29792;48.726;9.248;2023-06-22T12:54:15;96750.91;;;29.72;61.60
44131;BME280;29792;48.726;9.248;2023-06-22T12:56:41;96741.38;;;29.71;63.16
44131;BME280;29792;48.726;9.248;2023-06-22T12:59:08;96738.75;;;29.71;64.81